logo dgac
Jueves 18 de Octubre del 2018

Metar

Buscar por aerodromo o helipuerto
Ingrese nombre de aeródromo, localidad o designador OACI:


METAR del 18-10-2018 a las 04:00 UTC
METAR SCCY 180400Z AUTO 06012KT 030V090 9999 SCT045 07/M02 Q1028
Nan: AUTO
Viento: dirección 060 grados, velocidad 12 nudos
Viento con dirección variable entre 030 y 090 grados
Visibilidad: 10 km o más
Nubes: Nubosidad parcial a 4500 pies sobre el nivel del aeródromo
Temperatura: 7 °C
Rocío: -2 °C
Humedad_relativa: 53%
Presión: 1028 hPa
METAR del 18-10-2018 a las 04:00 UTC
METAR SCBA 180400Z AUTO 13015KT 9999 BKN046 04/M02 Q1030
Nan: AUTO
Viento: dirección 130 grados, velocidad 15 nudos
Visibilidad: 10 km o más
Nubes: Nublado a 4600 pies sobre el nivel del aeródromo
Temperatura: 4 °C
Rocío: -2 °C
Humedad_relativa: 65%
Presión: 1030 hPa
METAR del 18-10-2018 a las 04:00 UTC
METAR SCAT 180400Z AUTO VRB01KT 9999 // NCD 12/09 Q1018
Nan: AUTO
Viento: dirección variable, velocidad 1 nudos
Visibilidad: 10 km o más
Nan: //
Nan: NCD
Temperatura: 12 °C
Rocío: 9 °C
Humedad_relativa: 82%
Presión: 1018 hPa
METAR del 18-10-2018 a las 04:00 UTC
METAR SCFT 180400Z AUTO 00000KT 9999 -RA ///005 07/06 Q1021
Nan: AUTO
Visibilidad: 10 km o más
Débil Lluvia
Nan: ///005
Temperatura: 7 °C
Rocío: 6 °C
Humedad_relativa: 93%
Presión: 1021 hPa
METAR del 18-10-2018 a las 04:00 UTC
METAR SCSE 180400Z 08003KT CAVOK 11/09 Q1018
Viento: dirección 080 grados, velocidad 3 nudos
Visibilidad: 10 km o más,
    sin nubes bajo los 5.000 pies o bajo del MSA (Mínimo de Seguridad del Aeródromo),
    sin cumulonimbus, y sin fenómenos de tiempo significativo en el aeródromo o alrededores
Temperatura: 11 °C
Rocío: 9 °C
Humedad_relativa: 87%
Presión: 1018 hPa
METAR del 18-10-2018 a las 04:00 UTC
METAR SCTN 180400Z AUTO 05004KT 010V100 //// R/////// // NCD 06/04 Q1019
Nan: AUTO
Viento: dirección 050 grados, velocidad 4 nudos
Viento con dirección variable entre 010 y 100 grados
Nan: ////
Nan: R///////
Nan: //
Nan: NCD
Temperatura: 6 °C
Rocío: 4 °C
Humedad_relativa: 87%
Presión: 1019 hPa
METAR del 18-10-2018 a las 04:00 UTC
METAR SCIC 180400Z AUTO 03004KT 350V060 9999 OVC043 13/08 Q1019
Nan: AUTO
Viento: dirección 030 grados, velocidad 4 nudos
Viento con dirección variable entre 350 y 060 grados
Visibilidad: 10 km o más
Nubes: Cubierto a 4300 pies sobre el nivel del aeródromo
Temperatura: 13 °C
Rocío: 8 °C
Humedad_relativa: 72%
Presión: 1019 hPa
METAR del 18-10-2018 a las 04:00 UTC
METAR SCSN 180400Z AUTO 11003KT 080V140 CAVOK 08/08 Q1020
Nan: AUTO
Viento: dirección 110 grados, velocidad 3 nudos
Viento con dirección variable entre 080 y 140 grados
Visibilidad: 10 km o más,
    sin nubes bajo los 5.000 pies o bajo del MSA (Mínimo de Seguridad del Aeródromo),
    sin cumulonimbus, y sin fenómenos de tiempo significativo en el aeródromo o alrededores
Temperatura: 8 °C
Rocío: 8 °C
Humedad_relativa: 100%
Presión: 1020 hPa
METAR del 18-10-2018 a las 04:00 UTC
METAR SCCH 180400Z AUTO 06006KT 9999 RA NCD 10/10 Q1020 RERA
Nan: AUTO
Viento: dirección 060 grados, velocidad 6 nudos
Visibilidad: 10 km o más
Lluvia
Nan: NCD
Temperatura: 10 °C
Rocío: 10 °C
Humedad_relativa: 100%
Presión: 1020 hPa
Se observó recientemente Lluvia
METAR del 18-10-2018 a las 04:00 UTC
METAR SCVD 180400Z AUTO VRB02KT 9999 FEW016 BKN021 08/07 Q1019
Nan: AUTO
Viento: dirección variable, velocidad 2 nudos
Visibilidad: 10 km o más
Nubes: Escasa nubosidad a 1600 pies sobre el nivel del aeródromo
Nubes: Nublado a 2100 pies sobre el nivel del aeródromo
Temperatura: 8 °C
Rocío: 7 °C
Humedad_relativa: 93%
Presión: 1019 hPa